Detall de PIREP

Printer-friendly versionPDF version

[2012/09/01 07:09:00]
Flight IATA:CT2110
Pilot Number:041
Company ICAO:CAT
Aircraft Type:BE58/A
PAX:3
Departing Airport: LEVC
Destination Airport: LEST
Alternate Airport:LECO
Online: VATSIM
Route:CENTA A33 PRADO A33 CJN A33 HORTA A33 MAGIN A33 INDEG A33 DISKO A33 ZMR A33 BARKO A33 FORNO
Flight Level:F130
No Slew and time accel
No pause
Crash detect
Detect pilot in Cockpit between each 30 and 45 minutes
07:09 Zero fuel Weight: 4591 Lbs, Fuel Weight: 850 Lbs
07:09 VATSIM:LEVC 010700Z 29005KT 260V320 9999 FEW030 20/M00 Q1022 NOSIG
07:09 VATSIM:LEST 010700Z 08004KT 030V120 CAVOK 13/09 Q1026 NOSIG
07:10 VOICE CATALONIAN
07:14 Parking Brakes off
07:23 Take-off
07:23 Take off Weight: 5438 Lbs
07:23 Wind: 022º @ 004 Knots Heading: 295º
07:23 POS N39º 29´ 21´´ W000º 28´ 54´´
07:23 Flaps:1 at 115 Knots
07:23 Gear Up: 118 Knots
07:24 Flaps:0 at 126 Knots
07:36 TOC
07:36 Fuel Weight: 799 Lb
07:38 Wind:001º@026 Knots Heading: 305º Ground Speed: 195 Knots Altitude 12916 ft
07:43 TOD
07:43 Fuel Weight: 770 Lb
07:43 TOC
07:43 Fuel Weight: 770 Lb
07:53 Wind:093º@026 Knots Heading: 301º Ground Speed: 234 Knots Altitude 12916 ft
08:08 Wind:073º@025 Knots Heading: 301º Ground Speed: 229 Knots Altitude 12965 ft
08:12 TOD
08:12 Fuel Weight: 662 Lb
08:14 TOC
08:14 Fuel Weight: 660 Lb
08:23 Wind:001º@022 Knots Heading: 301º Ground Speed: 203 Knots Altitude 13389 ft
08:38 Wind:001º@026 Knots Heading: 302º Ground Speed: 201 Knots Altitude 13385 ft
08:53 Wind:001º@026 Knots Heading: 310º Ground Speed: 198 Knots Altitude 13385 ft
09:08 Wind:001º@026 Knots Heading: 310º Ground Speed: 198 Knots Altitude 13385 ft
09:16 TOD
09:16 Fuel Weight: 412 Lb
09:23 Wind:001º@024 Knots Heading: 301º Ground Speed: 179 Knots Altitude 8631 ft
09:38 Wind:000º@008 Knots Heading: 164º Ground Speed: 198 Knots Altitude 4055 ft
09:40 Flaps:1 at 139 Knots
09:42 Gear Down: 125 Knots
09:45 Flaps:2 at 119 Knots
09:48 TouchDown:Rate -186 ft/min Speed: 87 Knots
09:48 Flaps:0 at 77 Knots
09:48 VATSIM:LEST 010930Z 08008KT 050V110 CAVOK 18/10 Q1026 NOSIG
09:48 Land
09:48 Wind:351º@008 Knots
09:48 Heading: 348º
09:48 Flight Duration: 02:25
09:48 Landing Weight: 4925 Lbs
09:48 POS N42º 53´ 25´´ W008º 24´ 47´´
09:51 Parking brakes on
09:51 Block to Block Duration: 02:37
09:51 Final Fuel: 332 Lbls
09:51 Spent Fuel: 518 Lbls
09:51 Flight Length: 265 NM
09:51 TOD Land Length: 43 NM

Exportar CSV

Powered by Drupal - Modified by Danger4k